sensor_id;sensor_type;location;lat;lon;timestamp;pressure;altitude;pressure_sealevel;temperature;humidity
40954;BME280;26686;50.130;8.710;2023-04-25T00:00:05;99467.81;;;11.14;75.92
40954;BME280;26686;50.130;8.710;2023-04-25T00:05:08;99475.84;;;10.94;76.40
40954;BME280;26686;50.130;8.710;2023-04-25T00:10:11;99470.53;;;10.94;77.92
40954;BME280;26686;50.130;8.710;2023-04-25T00:15:13;99472.03;;;11.07;78.36
40954;BME280;26686;50.130;8.710;2023-04-25T00:20:15;99470.63;;;11.03;78.57
40954;BME280;26686;50.130;8.710;2023-04-25T00:25:18;99463.47;;;11.03;78.83
40954;BME280;26686;50.130;8.710;2023-04-25T00:30:20;99462.94;;;11.00;77.75
40954;BME280;26686;50.130;8.710;2023-04-25T00:35:21;99478.75;;;11.11;78.74
40954;BME280;26686;50.130;8.710;2023-04-25T00:40:23;99484.06;;;11.11;78.84
40954;BME280;26686;50.130;8.710;2023-04-25T00:45:27;99480.31;;;11.04;78.56
40954;BME280;26686;50.130;8.710;2023-04-25T00:50:35;99478.31;;;11.06;78.87
40954;BME280;26686;50.130;8.710;2023-04-25T00:55:36;99467.81;;;11.04;78.66
40954;BME280;26686;50.130;8.710;2023-04-25T01:00:39;99471.16;;;11.06;78.29
40954;BME280;26686;50.130;8.710;2023-04-25T01:05:41;99444.38;;;10.80;78.45
40954;BME280;26686;50.130;8.710;2023-04-25T01:10:43;99460.03;;;10.83;77.97
40954;BME280;26686;50.130;8.710;2023-04-25T01:15:45;99468.91;;;10.74;79.33
40954;BME280;26686;50.130;8.710;2023-04-25T01:20:50;99456.69;;;10.81;77.90
40954;BME280;26686;50.130;8.710;2023-04-25T01:25:52;99446.63;;;10.75;79.84
40954;BME280;26686;50.130;8.710;2023-04-25T01:30:56;99446.84;;;10.91;79.73
40954;BME280;26686;50.130;8.710;2023-04-25T01:35:57;99453.84;;;10.92;78.40
40954;BME280;26686;50.130;8.710;2023-04-25T01:40:59;99456.34;;;10.94;78.56
40954;BME280;26686;50.130;8.710;2023-04-25T01:46:00;99470.91;;;11.00;78.31
40954;BME280;26686;50.130;8.710;2023-04-25T01:51:02;99450.22;;;10.84;77.73
40954;BME280;26686;50.130;8.710;2023-04-25T01:56:05;99457.09;;;10.86;76.81
40954;BME280;26686;50.130;8.710;2023-04-25T02:01:06;99476.53;;;10.96;76.34
40954;BME280;26686;50.130;8.710;2023-04-25T02:06:08;99484.69;;;10.95;77.36
40954;BME280;26686;50.130;8.710;2023-04-25T02:11:11;99477.66;;;10.94;75.99
40954;BME280;26686;50.130;8.710;2023-04-25T02:16:12;99464.78;;;10.89;76.68
40954;BME280;26686;50.130;8.710;2023-04-25T02:21:15;99464.78;;;10.89;76.42
40954;BME280;26686;50.130;8.710;2023-04-25T02:26:16;99455.16;;;10.78;76.90
40954;BME280;26686;50.130;8.710;2023-04-25T02:31:18;99464.78;;;10.89;74.39
40954;BME280;26686;50.130;8.710;2023-04-25T02:36:19;99460.34;;;10.80;76.01
40954;BME280;26686;50.130;8.710;2023-04-25T02:41:21;99463.53;;;10.84;76.38
40954;BME280;26686;50.130;8.710;2023-04-25T02:46:22;99456.25;;;10.86;76.00
40954;BME280;26686;50.130;8.710;2023-04-25T02:51:39;99465.66;;;10.80;75.99
40954;BME280;26686;50.130;8.710;2023-04-25T02:56:41;99460.88;;;10.84;75.55
40954;BME280;26686;50.130;8.710;2023-04-25T03:01:42;99471.66;;;10.82;74.77
40954;BME280;26686;50.130;8.710;2023-04-25T03:06:44;99452.63;;;10.77;75.40
40954;BME280;26686;50.130;8.710;2023-04-25T03:11:46;99466.97;;;10.66;74.43
40954;BME280;26686;50.130;8.710;2023-04-25T03:16:47;99469.03;;;10.63;76.12
40954;BME280;26686;50.130;8.710;2023-04-25T03:21:50;99466.25;;;10.64;76.22
40954;BME280;26686;50.130;8.710;2023-04-25T03:26:52;99458.13;;;10.66;76.35
40954;BME280;26686;50.130;8.710;2023-04-25T03:31:53;99466.66;;;10.69;75.95
40954;BME280;26686;50.130;8.710;2023-04-25T03:36:55;99464.53;;;10.73;76.54
40954;BME280;26686;50.130;8.710;2023-04-25T03:41:57;99477.03;;;10.72;75.36
40954;BME280;26686;50.130;8.710;2023-04-25T03:46:58;99482.78;;;10.68;75.31
40954;BME280;26686;50.130;8.710;2023-04-25T03:52:00;99483.59;;;10.78;75.43
40954;BME280;26686;50.130;8.710;2023-04-25T03:57:01;99481.63;;;10.70;76.11
40954;BME280;26686;50.130;8.710;2023-04-25T04:02:03;99484.44;;;10.69;75.87
40954;BME280;26686;50.130;8.710;2023-04-25T04:07:05;99490.91;;;10.66;75.78
40954;BME280;26686;50.130;8.710;2023-04-25T04:12:06;99490.06;;;10.66;75.65
40954;BME280;26686;50.130;8.710;2023-04-25T04:17:08;99500.00;;;10.64;75.31
40954;BME280;26686;50.130;8.710;2023-04-25T04:22:09;99497.34;;;10.64;75.91
40954;BME280;26686;50.130;8.710;2023-04-25T04:27:11;99517.97;;;10.61;76.01
40954;BME280;26686;50.130;8.710;2023-04-25T04:32:14;99523.13;;;10.63;73.30
40954;BME280;26686;50.130;8.710;2023-04-25T04:37:16;99532.06;;;10.33;69.97
40954;BME280;26686;50.130;8.710;2023-04-25T04:42:19;99539.50;;;10.29;69.20
40954;BME280;26686;50.130;8.710;2023-04-25T04:47:20;99535.84;;;10.20;66.47
40954;BME280;26686;50.130;8.710;2023-04-25T04:52:22;99538.66;;;10.29;66.67
40954;BME280;26686;50.130;8.710;2023-04-25T04:57:23;99550.81;;;10.21;64.77
40954;BME280;26686;50.130;8.710;2023-04-25T05:02:25;99563.56;;;10.27;66.54
40954;BME280;26686;50.130;8.710;2023-04-25T05:07:26;99556.25;;;10.10;64.97
40954;BME280;26686;50.130;8.710;2023-04-25T05:12:28;99574.03;;;10.09;64.55
40954;BME280;26686;50.130;8.710;2023-04-25T05:17:29;99582.84;;;10.10;64.52
40954;BME280;26686;50.130;8.710;2023-04-25T05:22:31;99580.19;;;10.10;64.38
40954;BME280;26686;50.130;8.710;2023-04-25T05:27:33;99579.38;;;10.19;66.50
40954;BME280;26686;50.130;8.710;2023-04-25T05:32:34;99587.09;;;10.22;65.14
40954;BME280;26686;50.130;8.710;2023-04-25T05:37:36;99586.44;;;10.40;65.35
40954;BME280;26686;50.130;8.710;2023-04-25T05:42:38;99592.88;;;10.47;64.10
40954;BME280;26686;50.130;8.710;2023-04-25T05:47:40;99587.28;;;10.50;63.64
40954;BME280;26686;50.130;8.710;2023-04-25T05:52:41;99596.50;;;10.66;62.69
40954;BME280;26686;50.130;8.710;2023-04-25T05:57:43;99602.41;;;10.69;62.84
40954;BME280;26686;50.130;8.710;2023-04-25T06:02:46;99585.31;;;10.62;62.05
40954;BME280;26686;50.130;8.710;2023-04-25T06:07:48;99608.44;;;10.71;61.59
40954;BME280;26686;50.130;8.710;2023-04-25T06:12:49;99601.72;;;10.77;61.79
40954;BME280;26686;50.130;8.710;2023-04-25T06:17:51;99611.94;;;10.82;61.93
40954;BME280;26686;50.130;8.710;2023-04-25T06:22:52;99601.53;;;10.88;62.88
40954;BME280;26686;50.130;8.710;2023-04-25T06:27:54;99579.41;;;10.88;59.75
40954;BME280;26686;50.130;8.710;2023-04-25T06:32:55;99610.94;;;11.02;58.98
40954;BME280;26686;50.130;8.710;2023-04-25T06:37:57;99603.50;;;11.16;60.10
40954;BME280;26686;50.130;8.710;2023-04-25T06:42:59;99603.22;;;11.09;59.22
40954;BME280;26686;50.130;8.710;2023-04-25T06:48:00;99599.25;;;11.23;59.31
40954;BME280;26686;50.130;8.710;2023-04-25T06:53:02;99599.88;;;11.07;59.98
40954;BME280;26686;50.130;8.710;2023-04-25T06:58:04;99599.53;;;11.29;59.49
40954;BME280;26686;50.130;8.710;2023-04-25T07:03:05;99600.44;;;11.48;58.54
40954;BME280;26686;50.130;8.710;2023-04-25T07:08:07;99617.63;;;11.73;57.08
40954;BME280;26686;50.130;8.710;2023-04-25T07:13:09;99617.00;;;11.89;54.35
40954;BME280;26686;50.130;8.710;2023-04-25T07:18:10;99620.34;;;11.91;54.76
40954;BME280;26686;50.130;8.710;2023-04-25T07:23:13;99629.34;;;12.00;55.75
40954;BME280;26686;50.130;8.710;2023-04-25T07:28:14;99611.53;;;11.91;54.75
40954;BME280;26686;50.130;8.710;2023-04-25T07:33:19;99628.88;;;11.67;56.04
40954;BME280;26686;50.130;8.710;2023-04-25T07:38:22;99629.56;;;11.69;55.93
40954;BME280;26686;50.130;8.710;2023-04-25T07:43:24;99638.88;;;11.55;56.14
40954;BME280;26686;50.130;8.710;2023-04-25T07:48:26;99641.59;;;11.83;55.03
40954;BME280;26686;50.130;8.710;2023-04-25T07:53:27;99643.16;;;11.76;52.88
40954;BME280;26686;50.130;8.710;2023-04-25T07:58:29;99650.97;;;11.87;54.98
40954;BME280;26686;50.130;8.710;2023-04-25T08:03:30;99646.78;;;11.84;53.55
40954;BME280;26686;50.130;8.710;2023-04-25T08:08:32;99653.50;;;11.98;52.98
40954;BME280;26686;50.130;8.710;2023-04-25T08:13:33;99663.66;;;12.41;51.76
40954;BME280;26686;50.130;8.710;2023-04-25T08:18:35;99673.34;;;12.14;50.80
40954;BME280;26686;50.130;8.710;2023-04-25T08:23:37;99669.69;;;12.15;50.61
40954;BME280;26686;50.130;8.710;2023-04-25T08:28:39;99688.91;;;12.46;50.47
40954;BME280;26686;50.130;8.710;2023-04-25T08:33:40;99701.09;;;12.77;49.11
40954;BME280;26686;50.130;8.710;2023-04-25T08:38:41;99700.09;;;12.78;48.94
40954;BME280;26686;50.130;8.710;2023-04-25T08:43:43;99702.53;;;12.89;47.65
40954;BME280;26686;50.130;8.710;2023-04-25T08:48:46;99696.41;;;12.61;47.52
40954;BME280;26686;50.130;8.710;2023-04-25T08:53:49;99711.84;;;12.85;48.23
40954;BME280;26686;50.130;8.710;2023-04-25T08:58:58;99717.03;;;13.22;47.76
40954;BME280;26686;50.130;8.710;2023-04-25T09:03:59;99708.84;;;13.60;45.45
40954;BME280;26686;50.130;8.710;2023-04-25T09:09:05;99716.75;;;13.96;46.38
40954;BME280;26686;50.130;8.710;2023-04-25T09:14:19;99724.72;;;13.61;46.46
40954;BME280;26686;50.130;8.710;2023-04-25T09:24:45;99722.06;;;13.88;45.44
40954;BME280;26686;50.130;8.710;2023-04-25T09:29:59;99740.09;;;14.46;43.72
40954;BME280;26686;50.130;8.710;2023-04-25T09:35:04;99732.94;;;13.86;42.64
40954;BME280;26686;50.130;8.710;2023-04-25T09:40:06;99753.00;;;13.28;42.73
40954;BME280;26686;50.130;8.710;2023-04-25T09:45:12;99763.22;;;13.15;43.67
40954;BME280;26686;50.130;8.710;2023-04-25T09:50:16;99760.56;;;13.95;44.44
40954;BME280;26686;50.130;8.710;2023-04-25T09:55:18;99763.84;;;14.41;40.86
40954;BME280;26686;50.130;8.710;2023-04-25T10:00:20;99755.47;;;14.10;42.19
40954;BME280;26686;50.130;8.710;2023-04-25T10:05:25;99761.41;;;14.56;41.07
40954;BME280;26686;50.130;8.710;2023-04-25T10:10:31;99771.00;;;14.67;41.71
40954;BME280;26686;50.130;8.710;2023-04-25T10:15:37;99775.66;;;15.32;40.18
40954;BME280;26686;50.130;8.710;2023-04-25T10:20:40;99776.44;;;14.92;41.31
40954;BME280;26686;50.130;8.710;2023-04-25T10:25:42;99774.09;;;14.89;41.16
40954;BME280;26686;50.130;8.710;2023-04-25T10:31:16;99792.66;;;14.47;40.48
40954;BME280;26686;50.130;8.710;2023-04-25T10:36:19;99794.41;;;14.04;43.51
40954;BME280;26686;50.130;8.710;2023-04-25T10:41:24;99806.06;;;13.95;45.41
40954;BME280;26686;50.130;8.710;2023-04-25T10:46:27;99808.69;;;13.69;46.83
40954;BME280;26686;50.130;8.710;2023-04-25T10:51:32;99817.50;;;13.61;46.42
40954;BME280;26686;50.130;8.710;2023-04-25T10:56:53;99812.44;;;13.58;46.39
40954;BME280;26686;50.130;8.710;2023-04-25T11:01:55;99816.88;;;13.49;46.30
40954;BME280;26686;50.130;8.710;2023-04-25T11:12:20;99824.16;;;14.54;43.78
40954;BME280;26686;50.130;8.710;2023-04-25T11:17:24;99817.88;;;14.71;43.19
40954;BME280;26686;50.130;8.710;2023-04-25T11:22:27;99816.19;;;14.09;44.11
40954;BME280;26686;50.130;8.710;2023-04-25T11:27:29;99822.13;;;13.95;43.62
40954;BME280;26686;50.130;8.710;2023-04-25T11:32:30;99834.75;;;13.03;45.31
40954;BME280;26686;50.130;8.710;2023-04-25T11:37:32;99815.00;;;13.14;46.36
40954;BME280;26686;50.130;8.710;2023-04-25T11:42:39;99820.81;;;15.86;40.23
40954;BME280;26686;50.130;8.710;2023-04-25T11:47:44;99825.31;;;15.61;39.25
40954;BME280;26686;50.130;8.710;2023-04-25T11:52:46;99834.53;;;14.57;40.30
40954;BME280;26686;50.130;8.710;2023-04-25T11:57:49;99842.59;;;14.04;39.67
40954;BME280;26686;50.130;8.710;2023-04-25T12:02:55;99852.81;;;13.47;41.50
40954;BME280;26686;50.130;8.710;2023-04-25T12:08:15;99851.56;;;13.13;40.87
40954;BME280;26686;50.130;8.710;2023-04-25T12:13:24;99848.66;;;13.34;42.17
40954;BME280;26686;50.130;8.710;2023-04-25T12:18:26;99853.19;;;13.52;42.02
40954;BME280;26686;50.130;8.710;2023-04-25T12:23:29;99856.31;;;13.65;40.87
40954;BME280;26686;50.130;8.710;2023-04-25T12:28:32;99854.25;;;13.59;40.48
40954;BME280;26686;50.130;8.710;2023-04-25T12:33:35;99857.16;;;13.20;42.02
40954;BME280;26686;50.130;8.710;2023-04-25T12:38:39;99867.44;;;13.15;42.86
40954;BME280;26686;50.130;8.710;2023-04-25T12:43:41;99865.66;;;13.33;42.96
40954;BME280;26686;50.130;8.710;2023-04-25T12:48:42;99870.97;;;13.61;42.94
40954;BME280;26686;50.130;8.710;2023-04-25T12:53:44;99867.97;;;13.82;42.05
40954;BME280;26686;50.130;8.710;2023-04-25T12:58:46;99868.22;;;13.89;41.67
40954;BME280;26686;50.130;8.710;2023-04-25T13:03:48;99876.09;;;13.90;41.50
40954;BME280;26686;50.130;8.710;2023-04-25T13:08:51;99879.13;;;13.95;40.69
40954;BME280;26686;50.130;8.710;2023-04-25T13:13:53;99881.00;;;14.21;41.19
40954;BME280;26686;50.130;8.710;2023-04-25T13:18:55;99878.25;;;14.31;39.96
40954;BME280;26686;50.130;8.710;2023-04-25T13:23:57;99874.06;;;14.55;39.03
40954;BME280;26686;50.130;8.710;2023-04-25T13:28:59;99873.56;;;14.33;39.42
40954;BME280;26686;50.130;8.710;2023-04-25T13:34:01;99874.22;;;14.09;38.77
40954;BME280;26686;50.130;8.710;2023-04-25T13:39:03;99869.81;;;13.46;39.06
40954;BME280;26686;50.130;8.710;2023-04-25T13:44:06;99874.34;;;13.63;39.72
40954;BME280;26686;50.130;8.710;2023-04-25T13:49:07;99887.25;;;13.50;40.18
40954;BME280;26686;50.130;8.710;2023-04-25T13:54:13;99887.03;;;13.61;38.81
40954;BME280;26686;50.130;8.710;2023-04-25T13:59:14;99887.72;;;13.81;39.51
40954;BME280;26686;50.130;8.710;2023-04-25T14:04:16;99885.63;;;13.75;38.56
40954;BME280;26686;50.130;8.710;2023-04-25T14:09:18;99888.72;;;14.24;37.99
40954;BME280;26686;50.130;8.710;2023-04-25T14:14:21;99898.63;;;14.76;37.17
40954;BME280;26686;50.130;8.710;2023-04-25T14:19:23;99899.13;;;14.54;35.90
40954;BME280;26686;50.130;8.710;2023-04-25T14:24:25;99891.19;;;14.18;35.74
40954;BME280;26686;50.130;8.710;2023-04-25T14:29:26;99887.47;;;13.74;37.35
40954;BME280;26686;50.130;8.710;2023-04-25T14:34:27;99893.50;;;13.58;37.66
40954;BME280;26686;50.130;8.710;2023-04-25T14:39:29;99893.69;;;13.29;37.86
40954;BME280;26686;50.130;8.710;2023-04-25T14:44:30;99893.91;;;13.46;38.57
40954;BME280;26686;50.130;8.710;2023-04-25T14:49:32;99905.06;;;13.31;37.92
40954;BME280;26686;50.130;8.710;2023-04-25T14:54:34;99913.50;;;13.36;38.21
40954;BME280;26686;50.130;8.710;2023-04-25T14:59:35;99922.09;;;13.30;37.11
40954;BME280;26686;50.130;8.710;2023-04-25T15:04:37;99917.13;;;13.07;37.56
40954;BME280;26686;50.130;8.710;2023-04-25T15:09:38;99925.28;;;13.06;38.04
40954;BME280;26686;50.130;8.710;2023-04-25T15:14:39;99920.16;;;13.22;38.76
40954;BME280;26686;50.130;8.710;2023-04-25T15:19:41;99932.53;;;12.96;39.14
40954;BME280;26686;50.130;8.710;2023-04-25T15:24:42;99939.81;;;13.03;38.08
40954;BME280;26686;50.130;8.710;2023-04-25T15:29:44;99941.97;;;12.90;37.29
40954;BME280;26686;50.130;8.710;2023-04-25T15:34:45;99941.31;;;13.06;36.49
40954;BME280;26686;50.130;8.710;2023-04-25T15:39:47;99931.25;;;13.27;37.32
40954;BME280;26686;50.130;8.710;2023-04-25T15:44:48;99937.34;;;13.20;38.95
40954;BME280;26686;50.130;8.710;2023-04-25T15:49:49;99939.50;;;13.44;38.52
40954;BME280;26686;50.130;8.710;2023-04-25T15:54:51;99934.78;;;13.56;38.29
40954;BME280;26686;50.130;8.710;2023-04-25T15:59:53;99935.88;;;13.35;39.28
40954;BME280;26686;50.130;8.710;2023-04-25T16:04:55;99937.84;;;13.61;39.58
40954;BME280;26686;50.130;8.710;2023-04-25T16:09:56;99931.19;;;13.65;38.92
40954;BME280;26686;50.130;8.710;2023-04-25T16:14:58;99930.28;;;13.74;37.96
40954;BME280;26686;50.130;8.710;2023-04-25T16:19:59;99946.56;;;13.63;36.76
40954;BME280;26686;50.130;8.710;2023-04-25T16:25:03;99935.63;;;13.56;36.86
40954;BME280;26686;50.130;8.710;2023-04-25T16:30:07;99941.41;;;13.52;35.88
40954;BME280;26686;50.130;8.710;2023-04-25T16:35:09;99953.38;;;13.20;36.47
40954;BME280;26686;50.130;8.710;2023-04-25T16:40:11;99958.94;;;12.99;37.70
40954;BME280;26686;50.130;8.710;2023-04-25T16:45:13;99964.97;;;13.11;37.17
40954;BME280;26686;50.130;8.710;2023-04-25T16:50:15;99969.50;;;13.00;38.78
40954;BME280;26686;50.130;8.710;2023-04-25T16:55:17;99975.41;;;12.94;38.66
40954;BME280;26686;50.130;8.710;2023-04-25T17:00:18;99972.63;;;12.86;38.29
40954;BME280;26686;50.130;8.710;2023-04-25T17:05:20;99970.94;;;12.85;38.80
40954;BME280;26686;50.130;8.710;2023-04-25T17:10:22;99974.72;;;12.92;39.06
40954;BME280;26686;50.130;8.710;2023-04-25T17:15:23;99980.78;;;12.94;39.31
40954;BME280;26686;50.130;8.710;2023-04-25T17:20:25;99987.19;;;13.01;39.30
40954;BME280;26686;50.130;8.710;2023-04-25T17:25:27;99988.34;;;12.99;38.58
40954;BME280;26686;50.130;8.710;2023-04-25T17:30:28;100000.41;;;13.03;40.43
40954;BME280;26686;50.130;8.710;2023-04-25T17:35:31;99997.34;;;12.88;39.14
40954;BME280;26686;50.130;8.710;2023-04-25T17:40:34;100005.25;;;12.80;39.09
40954;BME280;26686;50.130;8.710;2023-04-25T17:45:35;100006.25;;;12.59;39.43
40954;BME280;26686;50.130;8.710;2023-04-25T17:50:37;100008.69;;;12.52;39.72
40954;BME280;26686;50.130;8.710;2023-04-25T17:55:38;100020.19;;;12.53;39.75
40954;BME280;26686;50.130;8.710;2023-04-25T18:00:43;100022.75;;;12.25;39.36
40954;BME280;26686;50.130;8.710;2023-04-25T18:05:45;100037.34;;;11.71;40.19
40954;BME280;26686;50.130;8.710;2023-04-25T18:10:46;100047.03;;;11.72;39.60
40954;BME280;26686;50.130;8.710;2023-04-25T18:15:48;100050.03;;;11.88;40.14
40954;BME280;26686;50.130;8.710;2023-04-25T18:20:51;100063.38;;;11.88;39.93
40954;BME280;26686;50.130;8.710;2023-04-25T18:25:53;100063.38;;;11.88;40.82
40954;BME280;26686;50.130;8.710;2023-04-25T18:30:55;100070.34;;;11.79;41.19
40954;BME280;26686;50.130;8.710;2023-04-25T18:35:57;100077.06;;;11.74;41.24
40954;BME280;26686;50.130;8.710;2023-04-25T18:41:01;100085.91;;;11.34;42.23
40954;BME280;26686;50.130;8.710;2023-04-25T18:46:23;100091.06;;;11.56;42.88
40954;BME280;26686;50.130;8.710;2023-04-25T18:51:24;100097.50;;;11.54;41.98
40954;BME280;26686;50.130;8.710;2023-04-25T18:56:31;100097.00;;;11.39;43.06
40954;BME280;26686;50.130;8.710;2023-04-25T19:01:33;100100.06;;;11.34;43.25
40954;BME280;26686;50.130;8.710;2023-04-25T19:06:35;100118.91;;;11.21;43.06
40954;BME280;26686;50.130;8.710;2023-04-25T19:11:37;100125.53;;;11.06;43.37
40954;BME280;26686;50.130;8.710;2023-04-25T19:16:38;100122.03;;;10.84;43.63
40954;BME280;26686;50.130;8.710;2023-04-25T19:21:40;100125.22;;;10.78;44.06
40954;BME280;26686;50.130;8.710;2023-04-25T19:26:41;100130.06;;;10.73;44.50
40954;BME280;26686;50.130;8.710;2023-04-25T19:31:43;100133.88;;;10.59;44.89
40954;BME280;26686;50.130;8.710;2023-04-25T19:36:45;100145.06;;;10.74;44.36
40954;BME280;26686;50.130;8.710;2023-04-25T19:41:47;100137.94;;;10.95;44.31
40954;BME280;26686;50.130;8.710;2023-04-25T19:46:48;100151.09;;;11.08;44.65
40954;BME280;26686;50.130;8.710;2023-04-25T19:51:50;100156.94;;;11.02;43.78
40954;BME280;26686;50.130;8.710;2023-04-25T19:56:51;100151.47;;;10.83;44.41
40954;BME280;26686;50.130;8.710;2023-04-25T20:01:53;100142.16;;;10.77;43.56
40954;BME280;26686;50.130;8.710;2023-04-25T20:06:55;100149.19;;;10.78;43.17
40954;BME280;26686;50.130;8.710;2023-04-25T20:11:58;100150.28;;;10.75;42.18
40954;BME280;26686;50.130;8.710;2023-04-25T20:16:59;100151.84;;;10.78;41.70
40954;BME280;26686;50.130;8.710;2023-04-25T20:22:00;100167.09;;;10.76;42.32
40954;BME280;26686;50.130;8.710;2023-04-25T20:27:02;100154.91;;;10.62;43.02
40954;BME280;26686;50.130;8.710;2023-04-25T20:32:04;100165.63;;;10.72;43.13
40954;BME280;26686;50.130;8.710;2023-04-25T20:37:06;100175.19;;;10.74;42.94
40954;BME280;26686;50.130;8.710;2023-04-25T20:42:09;100176.28;;;10.72;42.84
40954;BME280;26686;50.130;8.710;2023-04-25T20:47:10;100164.50;;;10.53;43.29
40954;BME280;26686;50.130;8.710;2023-04-25T20:52:12;100178.19;;;10.49;43.69
40954;BME280;26686;50.130;8.710;2023-04-25T20:57:13;100173.03;;;10.36;43.76
40954;BME280;26686;50.130;8.710;2023-04-25T21:02:14;100178.53;;;10.33;44.01
40954;BME280;26686;50.130;8.710;2023-04-25T21:07:16;100185.22;;;10.27;44.50
40954;BME280;26686;50.130;8.710;2023-04-25T21:12:17;100181.59;;;10.17;44.57
40954;BME280;26686;50.130;8.710;2023-04-25T21:17:19;100189.69;;;10.15;45.26
40954;BME280;26686;50.130;8.710;2023-04-25T21:22:20;100196.47;;;10.08;45.43
40954;BME280;26686;50.130;8.710;2023-04-25T21:27:21;100195.63;;;10.07;46.54
40954;BME280;26686;50.130;8.710;2023-04-25T21:32:23;100192.34;;;10.04;45.83
40954;BME280;26686;50.130;8.710;2023-04-25T21:37:24;100190.56;;;10.04;45.95
40954;BME280;26686;50.130;8.710;2023-04-25T21:42:26;100202.41;;;10.00;46.03
40954;BME280;26686;50.130;8.710;2023-04-25T21:47:28;100195.75;;;9.95;46.77
40954;BME280;26686;50.130;8.710;2023-04-25T21:52:29;100196.59;;;9.95;46.40
40954;BME280;26686;50.130;8.710;2023-04-25T21:57:31;100190.91;;;9.88;46.33
40954;BME280;26686;50.130;8.710;2023-04-25T22:02:33;100207.09;;;9.97;46.36
40954;BME280;26686;50.130;8.710;2023-04-25T22:07:36;100209.03;;;9.95;46.82
40954;BME280;26686;50.130;8.710;2023-04-25T22:12:38;100210.00;;;9.94;46.27
40954;BME280;26686;50.130;8.710;2023-04-25T22:17:39;100222.09;;;9.98;47.37
40954;BME280;26686;50.130;8.710;2023-04-25T22:22:44;100215.81;;;9.99;46.65
40954;BME280;26686;50.130;8.710;2023-04-25T22:27:46;100223.69;;;10.00;46.58
40954;BME280;26686;50.130;8.710;2023-04-25T22:32:48;100235.16;;;10.01;47.38
40954;BME280;26686;50.130;8.710;2023-04-25T22:37:50;100242.41;;;9.99;46.70
40954;BME280;26686;50.130;8.710;2023-04-25T22:42:51;100245.78;;;10.01;46.66
40954;BME280;26686;50.130;8.710;2023-04-25T22:47:53;100248.44;;;10.01;47.06
40954;BME280;26686;50.130;8.710;2023-04-25T22:52:54;100251.81;;;9.91;46.75
40954;BME280;26686;50.130;8.710;2023-04-25T22:57:56;100253.53;;;9.93;47.49
40954;BME280;26686;50.130;8.710;2023-04-25T23:02:57;100261.38;;;9.94;48.00
40954;BME280;26686;50.130;8.710;2023-04-25T23:07:59;100263.94;;;9.96;47.55
40954;BME280;26686;50.130;8.710;2023-04-25T23:13:00;100267.66;;;9.93;47.40
40954;BME280;26686;50.130;8.710;2023-04-25T23:18:02;100271.66;;;9.99;47.97
40954;BME280;26686;50.130;8.710;2023-04-25T23:23:03;100277.06;;;9.75;48.82
40954;BME280;26686;50.130;8.710;2023-04-25T23:28:05;100276.09;;;9.76;49.38
40954;BME280;26686;50.130;8.710;2023-04-25T23:33:07;100281.03;;;9.80;49.09
40954;BME280;26686;50.130;8.710;2023-04-25T23:38:09;100282.97;;;9.78;49.11
40954;BME280;26686;50.130;8.710;2023-04-25T23:43:10;100280.22;;;9.80;48.73
40954;BME280;26686;50.130;8.710;2023-04-25T23:48:13;100276.19;;;9.74;49.21
40954;BME280;26686;50.130;8.710;2023-04-25T23:53:14;100292.25;;;9.72;48.93
40954;BME280;26686;50.130;8.710;2023-04-25T23:58:16;100273.06;;;9.69;49.53
